sensor_id;sensor_type;location;lat;lon;timestamp;pressure;altitude;pressure_sealevel;temperature;humidity
30598;BME280;17365;48.878;8.334;2023-05-02T00:00:12;100240.38;;;11.14;100.00
30598;BME280;17365;48.878;8.334;2023-05-02T00:02:38;100242.09;;;11.02;100.00
30598;BME280;17365;48.878;8.334;2023-05-02T00:05:03;100245.53;;;10.92;100.00
30598;BME280;17365;48.878;8.334;2023-05-02T00:07:29;100239.50;;;11.16;100.00
30598;BME280;17365;48.878;8.334;2023-05-02T00:09:54;100236.94;;;11.22;100.00
30598;BME280;17365;48.878;8.334;2023-05-02T00:12:19;100242.09;;;11.10;100.00
30598;BME280;17365;48.878;8.334;2023-05-02T00:14:45;100231.72;;;11.15;100.00
30598;BME280;17365;48.878;8.334;2023-05-02T00:17:19;100236.06;;;11.11;100.00
30598;BME280;17365;48.878;8.334;2023-05-02T00:19:45;100228.25;;;11.16;100.00
30598;BME280;17365;48.878;8.334;2023-05-02T00:22:10;100229.97;;;11.07;100.00
30598;BME280;17365;48.878;8.334;2023-05-02T00:24:35;100226.53;;;11.27;100.00
30598;BME280;17365;48.878;8.334;2023-05-02T00:27:01;100228.25;;;11.03;100.00
30598;BME280;17365;48.878;8.334;2023-05-02T00:29:26;100225.66;;;11.16;100.00
30598;BME280;17365;48.878;8.334;2023-05-02T00:31:51;100230.84;;;11.19;100.00
30598;BME280;17365;48.878;8.334;2023-05-02T00:34:16;100225.66;;;11.32;100.00
30598;BME280;17365;48.878;8.334;2023-05-02T00:36:41;100223.06;;;11.31;100.00
30598;BME280;17365;48.878;8.334;2023-05-02T00:39:07;100230.00;;;11.24;100.00
30598;BME280;17365;48.878;8.334;2023-05-02T00:41:32;100238.66;;;11.37;100.00
30598;BME280;17365;48.878;8.334;2023-05-02T00:43:57;100230.00;;;11.14;100.00
30598;BME280;17365;48.878;8.334;2023-05-02T00:46:22;100223.91;;;11.07;100.00
30598;BME280;17365;48.878;8.334;2023-05-02T00:48:48;100220.44;;;11.09;100.00
30598;BME280;17365;48.878;8.334;2023-05-02T00:51:14;100234.28;;;11.05;100.00
30598;BME280;17365;48.878;8.334;2023-05-02T00:53:39;100233.41;;;10.90;100.00
30598;BME280;17365;48.878;8.334;2023-05-02T00:56:05;100233.38;;;10.77;100.00
30598;BME280;17365;48.878;8.334;2023-05-02T00:58:30;100233.44;;;11.00;100.00
30598;BME280;17365;48.878;8.334;2023-05-02T01:06:15;100234.31;;;11.12;100.00
30598;BME280;17365;48.878;8.334;2023-05-02T01:11:33;100237.72;;;10.95;100.00
30598;BME280;17365;48.878;8.334;2023-05-02T01:14:01;100240.34;;;10.89;100.00
30598;BME280;17365;48.878;8.334;2023-05-02T01:16:28;100246.34;;;10.81;100.00
30598;BME280;17365;48.878;8.334;2023-05-02T01:18:55;100248.00;;;10.60;100.00
30598;BME280;17365;48.878;8.334;2023-05-02T01:21:22;100238.53;;;10.70;100.00
30598;BME280;17365;48.878;8.334;2023-05-02T01:29:00;100252.19;;;10.29;100.00
30598;BME280;17365;48.878;8.334;2023-05-02T01:31:28;100247.88;;;10.30;100.00
30598;BME280;17365;48.878;8.334;2023-05-02T01:33:55;100240.91;;;10.19;100.00
30598;BME280;17365;48.878;8.334;2023-05-02T01:36:21;100245.09;;;10.02;100.00
30598;BME280;17365;48.878;8.334;2023-05-02T01:38:47;100245.97;;;10.06;100.00
30598;BME280;17365;48.878;8.334;2023-05-02T01:41:13;100245.03;;;9.91;100.00
30598;BME280;17365;48.878;8.334;2023-05-02T01:43:39;100254.59;;;9.97;100.00
30598;BME280;17365;48.878;8.334;2023-05-02T01:46:06;100256.44;;;10.21;100.00
30598;BME280;17365;48.878;8.334;2023-05-02T01:48:33;100262.38;;;10.02;100.00
30598;BME280;17365;48.878;8.334;2023-05-02T01:50:59;100263.09;;;9.81;100.00
30598;BME280;17365;48.878;8.334;2023-05-02T01:53:25;100273.66;;;10.11;100.00
30598;BME280;17365;48.878;8.334;2023-05-02T01:55:52;100275.47;;;10.20;100.00
30598;BME280;17365;48.878;8.334;2023-05-02T01:58:19;100281.66;;;10.43;100.00
30598;BME280;17365;48.878;8.334;2023-05-02T02:00:45;100282.47;;;10.33;100.00
30598;BME280;17365;48.878;8.334;2023-05-02T02:03:11;100292.00;;;10.37;100.00
30598;BME280;17365;48.878;8.334;2023-05-02T02:05:37;100293.66;;;10.26;100.00
30598;BME280;17365;48.878;8.334;2023-05-02T02:08:03;100302.31;;;10.28;100.00
30598;BME280;17365;48.878;8.334;2023-05-02T02:10:30;100300.59;;;10.30;100.00
30598;BME280;17365;48.878;8.334;2023-05-02T02:13:00;100316.91;;;10.18;100.00
30598;BME280;17365;48.878;8.334;2023-05-02T02:15:28;100321.88;;;9.86;100.00
30598;BME280;17365;48.878;8.334;2023-05-02T02:20:19;100321.13;;;10.03;100.00
30598;BME280;17365;48.878;8.334;2023-05-02T02:22:45;100329.59;;;9.83;100.00
30598;BME280;17365;48.878;8.334;2023-05-02T02:25:12;100327.09;;;9.91;100.00
30598;BME280;17365;48.878;8.334;2023-05-02T02:27:38;100334.06;;;9.97;100.00
30598;BME280;17365;48.878;8.334;2023-05-02T02:30:04;100334.94;;;9.99;100.00
30598;BME280;17365;48.878;8.334;2023-05-02T02:32:30;100333.41;;;10.22;100.00
30598;BME280;17365;48.878;8.334;2023-05-02T02:34:55;100332.25;;;9.91;100.00
30598;BME280;17365;48.878;8.334;2023-05-02T02:37:24;100341.06;;;10.13;100.00
30598;BME280;17365;48.878;8.334;2023-05-02T02:39:53;100334.88;;;9.94;100.00
30598;BME280;17365;48.878;8.334;2023-05-02T02:50:29;100331.97;;;9.57;100.00
30598;BME280;17365;48.878;8.334;2023-05-02T02:55:28;100340.41;;;9.40;100.00
30598;BME280;17365;48.878;8.334;2023-05-02T03:00:27;100336.22;;;9.51;100.00
30598;BME280;17365;48.878;8.334;2023-05-02T03:02:53;100343.19;;;9.55;100.00
30598;BME280;17365;48.878;8.334;2023-05-02T03:05:18;100347.53;;;9.62;100.00
30598;BME280;17365;48.878;8.334;2023-05-02T03:07:45;100351.09;;;9.73;100.00
30598;BME280;17365;48.878;8.334;2023-05-02T03:10:10;100356.31;;;9.75;100.00
30598;BME280;17365;48.878;8.334;2023-05-02T03:12:35;100352.81;;;9.71;100.00
30598;BME280;17365;48.878;8.334;2023-05-02T03:17:29;100370.53;;;10.21;100.00
30598;BME280;17365;48.878;8.334;2023-05-02T03:19:54;100378.34;;;10.27;100.00
30598;BME280;17365;48.878;8.334;2023-05-02T03:22:21;100370.47;;;10.15;100.00
30598;BME280;17365;48.878;8.334;2023-05-02T03:24:46;100380.06;;;10.25;100.00
30598;BME280;17365;48.878;8.334;2023-05-02T03:27:11;100382.38;;;9.93;100.00
30598;BME280;17365;48.878;8.334;2023-05-02T03:29:36;100382.31;;;9.85;100.00
30598;BME280;17365;48.878;8.334;2023-05-02T03:32:02;100384.88;;;9.84;100.00
30598;BME280;17365;48.878;8.334;2023-05-02T03:34:27;100378.22;;;10.10;100.00
30598;BME280;17365;48.878;8.334;2023-05-02T03:36:52;100375.66;;;10.16;100.00
30598;BME280;17365;48.878;8.334;2023-05-02T03:39:17;100380.56;;;9.83;100.00
30598;BME280;17365;48.878;8.334;2023-05-02T03:41:43;100376.59;;;10.22;100.00
30598;BME280;17365;48.878;8.334;2023-05-02T03:44:08;100381.56;;;9.97;100.00
30598;BME280;17365;48.878;8.334;2023-05-02T03:46:33;100377.38;;;10.14;100.00
30598;BME280;17365;48.878;8.334;2023-05-02T03:48:58;100380.81;;;10.13;100.00
30598;BME280;17365;48.878;8.334;2023-05-02T03:51:23;100374.69;;;10.04;100.00
30598;BME280;17365;48.878;8.334;2023-05-02T03:53:49;100373.03;;;10.12;100.00
30598;BME280;17365;48.878;8.334;2023-05-02T03:56:17;100369.56;;;10.10;100.00
30598;BME280;17365;48.878;8.334;2023-05-02T03:58:44;100373.09;;;10.19;100.00
30598;BME280;17365;48.878;8.334;2023-05-02T04:01:13;100368.41;;;9.76;100.00
30598;BME280;17365;48.878;8.334;2023-05-02T04:03:39;100377.19;;;9.91;100.00
30598;BME280;17365;48.878;8.334;2023-05-02T04:06:04;100372.88;;;9.92;100.00
30598;BME280;17365;48.878;8.334;2023-05-02T04:08:29;100379.81;;;9.96;100.00
30598;BME280;17365;48.878;8.334;2023-05-02T04:10:54;100383.28;;;9.97;100.00
30598;BME280;17365;48.878;8.334;2023-05-02T04:13:19;100390.88;;;9.75;100.00
30598;BME280;17365;48.878;8.334;2023-05-02T04:15:45;100395.09;;;9.69;100.00
30598;BME280;17365;48.878;8.334;2023-05-02T04:18:10;100403.59;;;9.52;100.00
30598;BME280;17365;48.878;8.334;2023-05-02T04:20:35;100413.38;;;9.82;100.00
30598;BME280;17365;48.878;8.334;2023-05-02T04:23:01;100414.38;;;9.97;100.00
30598;BME280;17365;48.878;8.334;2023-05-02T04:25:26;100411.84;;;10.04;100.00
30598;BME280;17365;48.878;8.334;2023-05-02T04:27:51;100421.31;;;9.99;100.00
30598;BME280;17365;48.878;8.334;2023-05-02T04:30:16;100427.38;;;10.03;100.00
30598;BME280;17365;48.878;8.334;2023-05-02T04:32:42;100430.91;;;10.11;100.00
30598;BME280;17365;48.878;8.334;2023-05-02T04:35:07;100440.53;;;10.21;100.00
30598;BME280;17365;48.878;8.334;2023-05-02T04:37:33;100440.41;;;10.09;100.00
30598;BME280;17365;48.878;8.334;2023-05-02T04:39:59;100441.41;;;10.22;100.00
30598;BME280;17365;48.878;8.334;2023-05-02T04:42:24;100447.50;;;10.25;100.00
30598;BME280;17365;48.878;8.334;2023-05-02T04:44:49;100448.47;;;10.39;100.00
30598;BME280;17365;48.878;8.334;2023-05-02T04:47:15;100454.41;;;10.26;100.00
30598;BME280;17365;48.878;8.334;2023-05-02T04:49:40;100450.25;;;10.48;100.00
30598;BME280;17365;48.878;8.334;2023-05-02T04:52:05;100452.94;;;10.56;100.00
30598;BME280;17365;48.878;8.334;2023-05-02T04:54:31;100461.53;;;10.52;100.00
30598;BME280;17365;48.878;8.334;2023-05-02T04:56:56;100474.16;;;10.13;100.00
30598;BME280;17365;48.878;8.334;2023-05-02T04:59:23;100467.72;;;10.66;100.00
30598;BME280;17365;48.878;8.334;2023-05-02T05:01:48;100473.94;;;10.95;100.00
30598;BME280;17365;48.878;8.334;2023-05-02T05:04:13;100476.66;;;11.15;98.80
30598;BME280;17365;48.878;8.334;2023-05-02T05:06:38;100486.09;;;11.04;98.13
30598;BME280;17365;48.878;8.334;2023-05-02T05:09:04;100494.81;;;11.14;97.96
30598;BME280;17365;48.878;8.334;2023-05-02T05:11:30;100488.78;;;11.15;98.78
30598;BME280;17365;48.878;8.334;2023-05-02T05:13:55;100497.50;;;11.32;98.49
30598;BME280;17365;48.878;8.334;2023-05-02T05:16:20;100500.09;;;11.32;97.55
30598;BME280;17365;48.878;8.334;2023-05-02T05:18:46;100507.00;;;11.22;99.02
30598;BME280;17365;48.878;8.334;2023-05-02T05:21:13;100505.06;;;10.91;100.00
30598;BME280;17365;48.878;8.334;2023-05-02T05:23:38;100506.53;;;10.55;100.00
30598;BME280;17365;48.878;8.334;2023-05-02T05:26:10;100513.41;;;10.53;100.00
30598;BME280;17365;48.878;8.334;2023-05-02T05:28:35;100518.69;;;10.64;100.00
30598;BME280;17365;48.878;8.334;2023-05-02T05:31:04;100522.22;;;10.69;100.00
30598;BME280;17365;48.878;8.334;2023-05-02T05:33:30;100520.56;;;10.78;100.00
30598;BME280;17365;48.878;8.334;2023-05-02T05:35:55;100526.78;;;11.06;100.00
30598;BME280;17365;48.878;8.334;2023-05-02T05:38:21;100525.91;;;11.03;100.00
30598;BME280;17365;48.878;8.334;2023-05-02T05:40:48;100533.16;;;10.37;100.00
30598;BME280;17365;48.878;8.334;2023-05-02T05:43:13;100538.34;;;10.36;100.00
30598;BME280;17365;48.878;8.334;2023-05-02T05:45:38;100536.81;;;10.55;100.00
30598;BME280;17365;48.878;8.334;2023-05-02T05:48:03;100542.22;;;10.85;100.00
30598;BME280;17365;48.878;8.334;2023-05-02T05:50:29;100540.72;;;11.18;100.00
30598;BME280;17365;48.878;8.334;2023-05-02T05:52:54;100532.16;;;11.34;100.00
30598;BME280;17365;48.878;8.334;2023-05-02T05:55:19;100527.78;;;11.28;100.00
30598;BME280;17365;48.878;8.334;2023-05-02T05:57:44;100533.03;;;11.34;100.00
30598;BME280;17365;48.878;8.334;2023-05-02T06:00:10;100534.06;;;11.67;100.00
30598;BME280;17365;48.878;8.334;2023-05-02T06:02:35;100541.81;;;11.61;100.00
30598;BME280;17365;48.878;8.334;2023-05-02T06:05:01;100535.03;;;11.95;99.49
30598;BME280;17365;48.878;8.334;2023-05-02T06:07:26;100535.69;;;11.51;100.00
30598;BME280;17365;48.878;8.334;2023-05-02T06:09:51;100541.00;;;11.70;100.00
30598;BME280;17365;48.878;8.334;2023-05-02T06:12:16;100547.06;;;11.78;100.00
30598;BME280;17365;48.878;8.334;2023-05-02T06:14:42;100544.28;;;11.35;100.00
30598;BME280;17365;48.878;8.334;2023-05-02T06:17:07;100547.91;;;11.72;100.00
30598;BME280;17365;48.878;8.334;2023-05-02T06:19:32;100556.59;;;11.73;100.00
30598;BME280;17365;48.878;8.334;2023-05-02T06:21:57;100557.47;;;11.75;100.00
30598;BME280;17365;48.878;8.334;2023-05-02T06:24:22;100559.94;;;11.50;100.00
30598;BME280;17365;48.878;8.334;2023-05-02T06:26:48;100553.25;;;11.97;100.00
30598;BME280;17365;48.878;8.334;2023-05-02T06:29:13;100555.97;;;12.48;99.41
30598;BME280;17365;48.878;8.334;2023-05-02T06:31:38;100557.69;;;12.91;96.67
30598;BME280;17365;48.878;8.334;2023-05-02T06:34:03;100566.38;;;12.99;94.25
30598;BME280;17365;48.878;8.334;2023-05-02T06:36:28;100569.88;;;12.92;93.68
30598;BME280;17365;48.878;8.334;2023-05-02T06:38:54;100580.28;;;13.25;91.74
30598;BME280;17365;48.878;8.334;2023-05-02T06:41:19;100589.81;;;13.34;92.79
30598;BME280;17365;48.878;8.334;2023-05-02T06:43:45;100587.22;;;13.14;92.32
30598;BME280;17365;48.878;8.334;2023-05-02T06:46:10;100594.16;;;12.97;92.46
30598;BME280;17365;48.878;8.334;2023-05-02T06:48:35;100594.16;;;12.97;92.93
30598;BME280;17365;48.878;8.334;2023-05-02T06:51:00;100598.47;;;12.60;94.04
30598;BME280;17365;48.878;8.334;2023-05-02T06:53:28;100609.75;;;12.77;93.09
30598;BME280;17365;48.878;8.334;2023-05-02T06:55:53;100608.03;;;12.90;94.35
30598;BME280;17365;48.878;8.334;2023-05-02T06:58:18;100609.78;;;12.95;93.74
30598;BME280;17365;48.878;8.334;2023-05-02T07:00:43;100624.50;;;12.63;94.15
30598;BME280;17365;48.878;8.334;2023-05-02T07:03:08;100627.06;;;12.37;95.81
30598;BME280;17365;48.878;8.334;2023-05-02T07:05:35;100628.72;;;12.16;97.41
30598;BME280;17365;48.878;8.334;2023-05-02T07:08:00;100628.78;;;12.45;96.82
30598;BME280;17365;48.878;8.334;2023-05-02T07:10:25;100628.88;;;12.90;95.08
30598;BME280;17365;48.878;8.334;2023-05-02T07:12:50;100631.50;;;13.17;93.14
30598;BME280;17365;48.878;8.334;2023-05-02T07:15:15;100634.13;;;13.37;91.55
30598;BME280;17365;48.878;8.334;2023-05-02T07:17:41;100626.25;;;13.46;90.89
30598;BME280;17365;48.878;8.334;2023-05-02T07:20:07;100627.09;;;13.66;89.87
30598;BME280;17365;48.878;8.334;2023-05-02T07:22:33;100626.28;;;13.51;88.30
30598;BME280;17365;48.878;8.334;2023-05-02T07:24:59;100628.84;;;13.57;90.44
30598;BME280;17365;48.878;8.334;2023-05-02T07:27:25;100634.09;;;13.51;88.88
30598;BME280;17365;48.878;8.334;2023-05-02T07:29:50;100631.47;;;13.60;88.93
30598;BME280;17365;48.878;8.334;2023-05-02T07:32:15;100634.91;;;13.71;87.39
30598;BME280;17365;48.878;8.334;2023-05-02T07:34:41;100643.66;;;13.35;90.20
30598;BME280;17365;48.878;8.334;2023-05-02T07:37:06;100639.31;;;13.08;92.50
30598;BME280;17365;48.878;8.334;2023-05-02T07:39:31;100633.22;;;13.50;90.00
30598;BME280;17365;48.878;8.334;2023-05-02T07:41:56;100630.50;;;13.87;88.26
30598;BME280;17365;48.878;8.334;2023-05-02T07:44:22;100630.31;;;14.33;87.47
30598;BME280;17365;48.878;8.334;2023-05-02T07:46:47;100635.50;;;14.40;84.64
30598;BME280;17365;48.878;8.334;2023-05-02T07:49:12;100637.50;;;13.79;86.13
30598;BME280;17365;48.878;8.334;2023-05-02T07:51:37;100638.69;;;14.91;83.88
30598;BME280;17365;48.878;8.334;2023-05-02T07:54:13;100636.38;;;14.36;83.03
30598;BME280;17365;48.878;8.334;2023-05-02T07:56:38;100635.50;;;14.46;84.65
30598;BME280;17365;48.878;8.334;2023-05-02T07:59:03;100640.72;;;14.46;83.43
30598;BME280;17365;48.878;8.334;2023-05-02T08:01:29;100646.56;;;14.87;82.07
30598;BME280;17365;48.878;8.334;2023-05-02T08:03:54;100649.44;;;14.39;82.27
30598;BME280;17365;48.878;8.334;2023-05-02T08:06:20;100656.53;;;14.10;81.75
30598;BME280;17365;48.878;8.334;2023-05-02T08:08:46;100657.41;;;14.07;84.68
30598;BME280;17365;48.878;8.334;2023-05-02T08:11:11;100657.09;;;14.70;81.74
30598;BME280;17365;48.878;8.334;2023-05-02T08:13:36;100659.78;;;14.62;78.58
30598;BME280;17365;48.878;8.334;2023-05-02T08:16:01;100660.22;;;15.22;77.34
30598;BME280;17365;48.878;8.334;2023-05-02T08:18:27;100655.50;;;14.47;77.52
30598;BME280;17365;48.878;8.334;2023-05-02T08:20:55;100659.53;;;14.97;77.94
30598;BME280;17365;48.878;8.334;2023-05-02T08:23:22;100661.44;;;14.71;77.59
30598;BME280;17365;48.878;8.334;2023-05-02T08:25:47;100656.44;;;15.51;73.83
30598;BME280;17365;48.878;8.334;2023-05-02T08:28:12;100651.53;;;15.19;73.52
30598;BME280;17365;48.878;8.334;2023-05-02T08:30:38;100658.53;;;15.15;72.63
30598;BME280;17365;48.878;8.334;2023-05-02T08:33:03;100654.13;;;15.20;74.97
30598;BME280;17365;48.878;8.334;2023-05-02T08:35:28;100658.03;;;15.70;72.42
30598;BME280;17365;48.878;8.334;2023-05-02T08:37:56;100661.63;;;15.57;70.83
30598;BME280;17365;48.878;8.334;2023-05-02T08:40:22;100673.69;;;14.66;74.30
30598;BME280;17365;48.878;8.334;2023-05-02T08:42:47;100670.47;;;15.43;73.01
30598;BME280;17365;48.878;8.334;2023-05-02T08:45:13;100666.38;;;15.13;74.40
30598;BME280;17365;48.878;8.334;2023-05-02T08:47:39;100664.22;;;15.61;72.04
30598;BME280;17365;48.878;8.334;2023-05-02T08:50:05;100673.63;;;14.72;74.60
30598;BME280;17365;48.878;8.334;2023-05-02T08:52:31;100673.44;;;15.01;73.71
30598;BME280;17365;48.878;8.334;2023-05-02T08:54:56;100684.13;;;14.66;74.98
30598;BME280;17365;48.878;8.334;2023-05-02T08:57:22;100681.63;;;14.40;77.04
30598;BME280;17365;48.878;8.334;2023-05-02T08:59:47;100688.22;;;15.03;75.79
30598;BME280;17365;48.878;8.334;2023-05-02T09:02:22;100687.44;;;14.95;75.20
30598;BME280;17365;48.878;8.334;2023-05-02T09:04:51;100686.56;;;14.92;75.06
30598;BME280;17365;48.878;8.334;2023-05-02T09:07:18;100678.88;;;14.70;76.28
30598;BME280;17365;48.878;8.334;2023-05-02T09:09:43;100686.84;;;14.50;78.31
30598;BME280;17365;48.878;8.334;2023-05-02T09:12:08;100688.13;;;15.15;75.95
30598;BME280;17365;48.878;8.334;2023-05-02T09:14:34;100691.03;;;14.77;77.18
30598;BME280;17365;48.878;8.334;2023-05-02T09:16:59;100685.50;;;15.22;76.09
30598;BME280;17365;48.878;8.334;2023-05-02T09:19:25;100694.81;;;15.50;73.75
30598;BME280;17365;48.878;8.334;2023-05-02T09:21:50;100694.97;;;15.33;72.89
30598;BME280;17365;48.878;8.334;2023-05-02T09:24:20;100685.59;;;15.05;76.06
30598;BME280;17365;48.878;8.334;2023-05-02T09:29:40;100688.59;;;16.42;69.42
30598;BME280;17365;48.878;8.334;2023-05-02T09:32:08;100697.63;;;16.88;66.21
30598;BME280;17365;48.878;8.334;2023-05-02T09:34:33;100686.63;;;17.21;65.24
30598;BME280;17365;48.878;8.334;2023-05-02T09:37:01;100691.50;;;16.86;65.95
30598;BME280;17365;48.878;8.334;2023-05-02T09:39:29;100681.09;;;17.37;65.34
30598;BME280;17365;48.878;8.334;2023-05-02T09:41:54;100686.34;;;17.37;62.38
30598;BME280;17365;48.878;8.334;2023-05-02T09:44:21;100677.72;;;17.31;62.98
30598;BME280;17365;48.878;8.334;2023-05-02T09:46:47;100679.31;;;17.90;61.90
30598;BME280;17365;48.878;8.334;2023-05-02T09:49:13;100686.16;;;16.28;64.01
30598;BME280;17365;48.878;8.334;2023-05-02T09:51:45;100691.38;;;15.45;65.78
30598;BME280;17365;48.878;8.334;2023-05-02T09:54:11;100699.06;;;15.66;66.04
30598;BME280;17365;48.878;8.334;2023-05-02T09:56:55;100694.38;;;15.99;64.67
30598;BME280;17365;48.878;8.334;2023-05-02T09:59:20;100699.09;;;15.65;68.27
30598;BME280;17365;48.878;8.334;2023-05-02T10:01:51;100707.34;;;15.10;69.97
30598;BME280;17365;48.878;8.334;2023-05-02T10:04:18;100707.69;;;15.78;68.10
30598;BME280;17365;48.878;8.334;2023-05-02T10:06:44;100699.66;;;15.93;65.93
30598;BME280;17365;48.878;8.334;2023-05-02T10:09:10;100701.28;;;16.03;66.38
30598;BME280;17365;48.878;8.334;2023-05-02T10:11:37;100702.69;;;16.33;65.86
30598;BME280;17365;48.878;8.334;2023-05-02T10:14:04;100699.59;;;16.71;64.11
30598;BME280;17365;48.878;8.334;2023-05-02T10:16:33;100700.09;;;16.96;62.54
30598;BME280;17365;48.878;8.334;2023-05-02T10:19:08;100698.28;;;17.03;62.72
30598;BME280;17365;48.878;8.334;2023-05-02T10:21:34;100693.47;;;17.82;60.94
30598;BME280;17365;48.878;8.334;2023-05-02T10:24:00;100684.53;;;17.92;60.78
30598;BME280;17365;48.878;8.334;2023-05-02T10:26:29;100680.75;;;18.48;59.59
30598;BME280;17365;48.878;8.334;2023-05-02T10:28:55;100686.44;;;18.69;57.97
30598;BME280;17365;48.878;8.334;2023-05-02T10:31:20;100677.53;;;18.34;58.04
30598;BME280;17365;48.878;8.334;2023-05-02T10:33:46;100681.81;;;17.96;59.40
30598;BME280;17365;48.878;8.334;2023-05-02T10:36:14;100678.69;;;17.76;58.78
30598;BME280;17365;48.878;8.334;2023-05-02T10:38:40;100678.59;;;17.30;59.04
30598;BME280;17365;48.878;8.334;2023-05-02T10:41:07;100678.63;;;17.28;62.22
30598;BME280;17365;48.878;8.334;2023-05-02T10:43:34;100675.59;;;18.00;59.53
30598;BME280;17365;48.878;8.334;2023-05-02T10:46:00;100664.84;;;18.14;57.54
30598;BME280;17365;48.878;8.334;2023-05-02T10:48:27;100670.38;;;17.51;59.30
30598;BME280;17365;48.878;8.334;2023-05-02T10:50:54;100676.19;;;16.57;62.33
30598;BME280;17365;48.878;8.334;2023-05-02T10:53:23;100678.31;;;16.94;61.46
30598;BME280;17365;48.878;8.334;2023-05-02T10:58:32;100677.34;;;17.52;59.34
30598;BME280;17365;48.878;8.334;2023-05-02T11:01:30;100675.13;;;17.80;57.28
30598;BME280;17365;48.878;8.334;2023-05-02T11:11:46;100653.97;;;18.31;56.43
30598;BME280;17365;48.878;8.334;2023-05-02T11:14:40;100664.38;;;17.44;58.99
30598;BME280;17365;48.878;8.334;2023-05-02T11:19:23;100668.28;;;18.56;54.88
30598;BME280;17365;48.878;8.334;2023-05-02T11:21:49;100671.44;;;18.32;55.60
30598;BME280;17365;48.878;8.334;2023-05-02T11:29:51;100668.94;;;17.83;55.84
30598;BME280;17365;48.878;8.334;2023-05-02T11:32:17;100664.31;;;18.39;55.39
30598;BME280;17365;48.878;8.334;2023-05-02T11:34:42;100664.72;;;17.74;56.58
30598;BME280;17365;48.878;8.334;2023-05-02T11:37:11;100659.88;;;18.82;55.10
30598;BME280;17365;48.878;8.334;2023-05-02T11:39:37;100662.66;;;18.33;53.96
30598;BME280;17365;48.878;8.334;2023-05-02T11:42:02;100660.34;;;18.19;54.94
30598;BME280;17365;48.878;8.334;2023-05-02T11:44:28;100685.69;;;16.66;56.17
30598;BME280;17365;48.878;8.334;2023-05-02T11:46:53;100668.50;;;17.07;55.38
30598;BME280;17365;48.878;8.334;2023-05-02T11:49:19;100670.56;;;17.88;54.34
30598;BME280;17365;48.878;8.334;2023-05-02T11:51:44;100661.59;;;18.00;53.68
30598;BME280;17365;48.878;8.334;2023-05-02T11:54:16;100667.19;;;16.78;56.92
30598;BME280;17365;48.878;8.334;2023-05-02T11:56:42;100669.09;;;17.24;56.68
30598;BME280;17365;48.878;8.334;2023-05-02T11:59:07;100675.38;;;16.51;57.05
30598;BME280;17365;48.878;8.334;2023-05-02T12:01:32;100673.50;;;16.62;57.34
30598;BME280;17365;48.878;8.334;2023-05-02T12:04:04;100680.31;;;17.32;55.84
30598;BME280;17365;48.878;8.334;2023-05-02T12:06:31;100678.03;;;17.62;55.31
30598;BME280;17365;48.878;8.334;2023-05-02T12:09:06;100677.97;;;17.15;55.07
30598;BME280;17365;48.878;8.334;2023-05-02T12:11:32;100678.88;;;16.51;57.76
30598;BME280;17365;48.878;8.334;2023-05-02T12:13:57;100672.47;;;17.31;56.57
30598;BME280;17365;48.878;8.334;2023-05-02T12:16:22;100674.34;;;18.20;54.29
30598;BME280;17365;48.878;8.334;2023-05-02T12:18:47;100679.38;;;17.36;54.11
30598;BME280;17365;48.878;8.334;2023-05-02T12:21:13;100681.91;;;18.35;53.24
30598;BME280;17365;48.878;8.334;2023-05-02T12:23:39;100681.59;;;18.07;51.42
30598;BME280;17365;48.878;8.334;2023-05-02T12:26:19;100684.88;;;17.73;51.73
30598;BME280;17365;48.878;8.334;2023-05-02T12:28:51;100679.34;;;18.32;50.79
30598;BME280;17365;48.878;8.334;2023-05-02T12:31:18;100674.47;;;18.14;50.70
30598;BME280;17365;48.878;8.334;2023-05-02T12:33:44;100680.31;;;18.28;51.38
30598;BME280;17365;48.878;8.334;2023-05-02T12:36:12;100685.78;;;18.17;50.35
30598;BME280;17365;48.878;8.334;2023-05-02T12:38:37;100687.53;;;17.18;53.87
30598;BME280;17365;48.878;8.334;2023-05-02T12:41:02;100687.03;;;16.95;53.99
30598;BME280;17365;48.878;8.334;2023-05-02T12:43:27;100684.41;;;16.95;54.46
30598;BME280;17365;48.878;8.334;2023-05-02T12:46:09;100683.84;;;17.30;53.61
30598;BME280;17365;48.878;8.334;2023-05-02T12:48:35;100681.16;;;17.85;52.11
30598;BME280;17365;48.878;8.334;2023-05-02T12:51:00;100678.88;;;18.12;51.18
30598;BME280;17365;48.878;8.334;2023-05-02T12:53:41;100678.63;;;18.25;49.78
30598;BME280;17365;48.878;8.334;2023-05-02T12:56:08;100682.38;;;18.11;50.99
30598;BME280;17365;48.878;8.334;2023-05-02T12:58:43;100679.97;;;18.85;48.58
30598;BME280;17365;48.878;8.334;2023-05-02T13:01:09;100687.94;;;18.40;48.26
30598;BME280;17365;48.878;8.334;2023-05-02T13:03:35;100678.31;;;18.39;49.07
30598;BME280;17365;48.878;8.334;2023-05-02T13:06:00;100678.81;;;18.56;50.14
30598;BME280;17365;48.878;8.334;2023-05-02T13:08:26;100688.84;;;17.94;49.12
30598;BME280;17365;48.878;8.334;2023-05-02T13:10:51;100675.72;;;18.38;48.93
30598;BME280;17365;48.878;8.334;2023-05-02T13:13:16;100686.88;;;18.06;49.48
30598;BME280;17365;48.878;8.334;2023-05-02T13:15:41;100688.84;;;17.94;49.19
30598;BME280;17365;48.878;8.334;2023-05-02T13:18:07;100688.31;;;17.75;50.28
30598;BME280;17365;48.878;8.334;2023-05-02T13:20:32;100685.94;;;18.51;49.11
30598;BME280;17365;48.878;8.334;2023-05-02T13:22:57;100683.16;;;18.59;50.28
30598;BME280;17365;48.878;8.334;2023-05-02T13:25:22;100682.94;;;17.83;49.53
30598;BME280;17365;48.878;8.334;2023-05-02T13:27:47;100681.41;;;17.71;51.05
30598;BME280;17365;48.878;8.334;2023-05-02T13:30:13;100689.66;;;17.49;49.66
30598;BME280;17365;48.878;8.334;2023-05-02T13:32:38;100694.63;;;17.64;48.89
30598;BME280;17365;48.878;8.334;2023-05-02T13:35:04;100689.53;;;17.55;48.85